Terminal Aerodrome Forecast
Issued by NWS

Home | Current Version | Previous Version | Text Only | Print | Product List | Glossary On
Versions: 1 2 3 4 5 6 7 8 9 10 11 12 13 14 15
000
FTUS45 KABQ 261100 RRA
TAFTCC
TAF
KTCC 261140Z 2612/2712 04014G22KT P6SM BKN100
     FM261300 04011G19KT P6SM OVC015
      TEMPO 2615/2619 2SM -SN OVC009
     FM261900 06008KT 5SM -SN BR OVC012
      TEMPO 2619/2623 1 1/2SM -SN BR OVC007
     FM270300 VRB05KT P6SM VCFG OVC020=

USA.gov is the U.S. government's official web portal to all federal, state and local government web resources and services.